Aérodrome :
LOGIN :

S'inscrire | Disclaimer

   EN    FR    IT 

 










Légende :    VFR   VFR Marginal   IFR   IFR Intensif   IFR Très Intensif
Visi : 
Plafond : 
>= 8 km
>= 3000ft
5 à 8 km
1000 à 3000 ft
1500m à 5 km
500 à 1000 ft
800 à 1500m
200 à 500 ft
< 800m
< 200 ft
Symboles :   Orages  Brouillard  Fortes neiges  Fortes précipitations  Vent > 20 kt
SIGMETs :   Divers  Orages  Givrage  Turbulence  Onde Orograph.  Cendres Volcan.







- Altitude de l'aérodrome : 1036 ft
- Code IATA : ERF


EDDE - Erfurt

DERNIER METAR :
  • 221220Z 32012KT 4000 -DZ BKN009 OVC012 09/08 Q1028 REDZ BECMG 9999

METARs EXPIRÉS :
  • 221150Z 31011KT 6000 -DZ FEW009 OVC015 09/08 Q1028 BECMG 2800 -DZ BKN007
  • 221120Z 32012KT 9999 -DZ BKN018 10/07 Q1028 BECMG 2800 -DZ BKN007
  • 221050Z 29009KT 9999 BKN028 OVC040 11/06 Q1028 BECMG 2800 -DZ BKN007
  • 221020Z 27011KT 9999 BKN028 BKN043 11/06 Q1028 NOSIG

TAF TAF EDDE
Valide du 22 à 12h jusqu'au 23 à 12h UTC


221100Z 2212/2312 30010KT 9999 BKN025
TEMPO 2212/2215 2000 DZRA BKN009
BECMG 2216/2219 28005KT
BECMG 2303/2306 24010KT
BECMG 2306/2309 24015G30KT
Pas de NOTAMs connus pour ce terrain.



MET'MAP, la Météo Aéronautique d'un coup d'oeil ! - Copyright ORBIFLY Décembre 2007 - Disclaimer

ORBIFLY MET'MAP TEAM :

Programmation & Développement : Alexandra Zaïnal
Conception & Développement : Baudouin d'Aumeries
Co-Programmation & Développement : Marc-Olivier Méhu
Soutien technique & logistique : Manuel Goepfert

Contact : metmap@orbifly.com




SOURCES & CREDITS :

   NOAA